Time;durP1;ratioP1;P1;durP2;ratioP2;P2;SDS_P1;SDS_P2;PMS_P1;PMS_P2;Temp;Humidity;BMP_temperature;BMP_pressure;BME280_temperature;BME280_humidity;BME280_pressure;Samples;Min_cycle;Max_cycle;Signal;HPM_P1;HPM_P2
2022/04/22 00:00:52;;;;;;;41.22;28.65;;;28.00;98.90;;;;;;4166256;28;20111;-70
2022/04/22 00:03:17;;;;;;;41.88;28.73;;;28.00;99.10;;;;;;4166649;28;20049;-71
2022/04/22 00:05:35;;;;;;;42.08;28.50;;;28.00;99.10;;;;;;4162723;28;20039;-71
2022/04/22 00:08:02;;;;;;;38.72;28.00;;;28.00;99.00;;;;;;4151703;28;20095;-69
2022/04/22 00:10:28;;;;;;;43.20;27.77;;;28.10;99.00;;;;;;4162931;28;20111;-70
2022/04/22 00:12:54;;;;;;;41.35;28.40;;;28.10;99.00;;;;;;4159932;28;20049;-68
2022/04/22 00:15:20;;;;;;;86.53;50.90;;;28.00;99.20;;;;;;4121017;28;20059;-70
2022/04/22 00:17:47;;;;;;;67.95;42.30;;;27.90;98.80;;;;;;4160384;28;20377;-70
2022/04/22 00:20:03;;;;;;;64.00;40.63;;;27.90;99.20;;;;;;4158047;28;20065;-71
2022/04/22 00:22:17;;;;;;;63.15;38.28;;;28.00;98.90;;;;;;4155076;28;20047;-69
2022/04/22 00:24:43;;;;;;;45.63;32.83;;;28.10;98.70;;;;;;4147215;28;20065;-69
2022/04/22 00:27:07;;;;;;;44.28;31.13;;;28.20;98.50;;;;;;4155102;28;20050;-70
2022/04/22 00:29:21;;;;;;;53.13;32.65;;;28.00;98.90;;;;;;4158719;28;20204;-69
2022/04/22 00:31:47;;;;;;;52.53;32.30;;;28.00;98.90;;;;;;4152469;28;20095;-71
2022/04/22 00:34:10;;;;;;;49.80;31.30;;;27.80;99.20;;;;;;4158487;28;20049;-71
2022/04/22 00:36:36;;;;;;;48.67;31.95;;;27.90;99.00;;;;;;4173597;28;20053;-71
2022/04/22 00:38:53;;;;;;;41.17;29.48;;;27.80;99.00;;;;;;4154675;28;20365;-71
2022/04/22 00:41:06;;;;;;;36.95;27.17;;;27.90;98.90;;;;;;4152178;28;20037;-71
2022/04/22 00:43:44;;;;;;;39.88;28.17;;;28.00;98.60;;;;;;4154876;28;20053;-70
2022/04/22 00:46:13;;;;;;;35.63;25.80;;;27.90;98.70;;;;;;4160845;28;20052;-70
2022/04/22 00:48:25;;;;;;;38.17;26.88;;;28.00;98.50;;;;;;4146955;28;20509;-71
2022/04/22 00:50:37;;;;;;;33.35;25.88;;;28.20;98.20;;;;;;4162956;28;20721;-71
2022/04/22 00:53:03;;;;;;;37.72;28.02;;;28.30;98.50;;;;;;4154665;28;20137;-72
2022/04/22 00:55:17;;;;;;;40.50;30.58;;;28.40;98.20;;;;;;4156178;28;20136;-71
2022/04/22 00:57:41;;;;;;;41.83;30.38;;;28.40;98.30;;;;;;4159374;28;20046;-69
2022/04/22 01:00:08;;;;;;;37.50;28.88;;;28.50;98.00;;;;;;4159184;28;20125;-72
2022/04/22 01:02:16;;;;;;;36.15;27.65;;;28.50;97.90;;;;;;4159816;28;20045;-71
2022/04/22 01:09:56;;;;;;;35.88;28.13;;;28.70;97.30;;;;;;4159704;28;20057;-71
2022/04/22 01:12:11;;;;;;;36.33;24.98;;;28.70;97.30;;;;;;4155514;28;20520;-71
2022/04/22 01:14:36;;;;;;;36.50;26.60;;;28.70;97.20;;;;;;4155102;28;20077;-73
2022/04/22 01:17:02;;;;;;;34.95;26.05;;;28.80;97.20;;;;;;4152207;28;20046;-73
2022/04/22 01:19:27;;;;;;;36.97;27.52;;;28.90;96.90;;;;;;4169504;28;20045;-73
2022/04/22 01:21:53;;;;;;;37.22;25.67;;;29.00;96.60;;;;;;4151730;28;20053;-73
2022/04/22 01:24:20;;;;;;;35.28;25.88;;;29.00;96.70;;;;;;4118739;28;20042;-73
2022/04/22 01:26:45;;;;;;;37.17;25.02;;;29.20;96.30;;;;;;4166395;28;20041;-73
2022/04/22 01:29:12;;;;;;;36.92;27.30;;;29.20;96.10;;;;;;4152976;28;20049;-73
2022/04/22 01:31:38;;;;;;;34.58;26.00;;;29.10;95.90;;;;;;4152854;28;20096;-72
2022/04/22 01:34:02;;;;;;;38.30;26.55;;;29.20;95.80;;;;;;4147299;28;20085;-72
2022/04/22 01:36:28;;;;;;;33.40;24.80;;;29.40;95.60;;;;;;4160226;28;20057;-72
2022/04/22 01:38:55;;;;;;;32.53;25.13;;;29.40;95.50;;;;;;4138375;28;20110;-71
2022/04/22 01:41:34;;;;;;;35.30;25.60;;;29.50;95.40;;;;;;4169276;28;20061;-72
2022/04/22 01:43:59;;;;;;;35.33;25.15;;;29.50;95.60;;;;;;4145721;28;20064;-72
2022/04/22 01:46:26;;;;;;;37.15;25.70;;;29.50;95.70;;;;;;4158746;28;20054;-71
2022/04/22 01:48:52;;;;;;;32.72;25.05;;;29.60;95.40;;;;;;4161244;28;20053;-71
2022/04/22 01:51:17;;;;;;;31.02;26.00;;;29.50;95.40;;;;;;4154516;28;20460;-72
2022/04/22 01:53:32;;;;;;;35.35;25.27;;;29.60;95.20;;;;;;4164229;28;20034;-71
2022/04/22 01:56:00;;;;;;;34.45;25.90;;;29.70;95.40;;;;;;4156215;28;20080;-72
2022/04/22 01:58:26;;;;;;;33.13;25.27;;;29.80;95.20;;;;;;4142501;28;20080;-71
2022/04/22 02:00:50;;;;;;;33.00;24.35;;;30.00;95.00;;;;;;4156612;28;20045;-72
2022/04/22 02:03:05;;;;;;;35.22;23.73;;;29.90;94.90;;;;;;4163883;28;20045;-72
2022/04/22 02:05:33;;;;;;;31.80;21.92;;;30.00;95.00;;;;;;4156391;28;20038;-72
2022/04/22 02:07:53;;;;;;;29.33;22.85;;;30.20;94.70;;;;;;4171820;28;20046;-72
2022/04/22 02:10:20;;;;;;;31.67;23.17;;;30.30;94.80;;;;;;4169390;28;20112;-72
2022/04/22 02:12:44;;;;;;;30.80;21.77;;;30.30;94.80;;;;;;4140121;28;20109;-72
2022/04/22 03:28:38;;;;;;;;;;;31.60;92.30;;;;;;4158102;28;20092;-72
2022/04/22 03:31:03;;;;;;;26.55;17.00;;;31.60;92.40;;;;;;4155375;28;19921;-71
2022/04/22 03:33:27;;;;;;;21.33;16.85;;;31.70;92.00;;;;;;4162547;28;20208;-72
2022/04/22 03:35:52;;;;;;;19.02;16.90;;;31.70;92.00;;;;;;4165463;28;20050;-70
2022/04/22 03:38:20;;;;;;;21.63;17.30;;;31.70;92.00;;;;;;4154651;28;20062;-70
2022/04/22 03:40:43;;;;;;;21.33;17.00;;;31.70;92.00;;;;;;4156911;28;20063;-70
2022/04/22 03:43:08;;;;;;;23.27;17.15;;;31.70;92.00;;;;;;4169480;28;20045;-71
2022/04/22 03:45:36;;;;;;;23.42;17.88;;;31.90;92.10;;;;;;4140152;28;20102;-72
2022/04/22 03:48:01;;;;;;;24.00;17.20;;;31.80;91.90;;;;;;4163010;28;20081;-71
2022/04/22 03:50:29;;;;;;;23.95;17.55;;;31.90;91.90;;;;;;4169586;28;20119;-72
2022/04/22 03:52:56;;;;;;;25.90;18.38;;;32.00;91.90;;;;;;4160636;28;20667;-70
2022/04/22 03:55:20;;;;;;;23.20;17.52;;;32.10;91.70;;;;;;4169679;28;20053;-70
2022/04/22 04:00:16;;;;;;;21.13;16.42;;;32.10;91.50;;;;;;4156406;28;20041;-70
2022/04/22 04:02:42;;;;;;;25.60;17.92;;;32.10;91.50;;;;;;4160427;28;20077;-72
2022/04/22 04:05:07;;;;;;;25.42;17.50;;;31.90;91.30;;;;;;4155287;28;20049;-71
2022/04/22 04:07:34;;;;;;;24.42;17.10;;;32.10;91.60;;;;;;4156554;28;20049;-71
2022/04/22 04:17:56;;;;;;;22.88;16.65;;;32.40;91.10;;;;;;4155514;28;20066;-72
2022/04/22 04:25:29;;;;;;;24.90;16.42;;;32.50;90.30;;;;;;4162557;28;20051;-71
2022/04/22 04:27:56;;;;;;;21.20;15.85;;;32.30;90.70;;;;;;4162964;28;20069;-71
2022/04/22 04:30:14;;;;;;;19.80;16.35;;;32.30;90.90;;;;;;4157817;28;20052;-73
2022/04/22 04:32:41;;;;;;;25.52;17.40;;;32.30;91.00;;;;;;4169098;28;20054;-72
2022/04/22 04:35:08;;;;;;;21.60;16.55;;;32.30;91.00;;;;;;4164317;28;20808;-74
2022/04/22 04:37:32;;;;;;;21.90;16.33;;;32.40;90.90;;;;;;4174885;28;20126;-74
2022/04/22 04:39:58;;;;;;;25.42;17.02;;;32.30;91.00;;;;;;4156046;28;20073;-74
2022/04/22 04:42:15;;;;;;;23.75;16.85;;;32.10;91.10;;;;;;4170183;28;20083;-73
2022/04/22 04:44:40;;;;;;;20.70;17.40;;;31.90;91.00;;;;;;4155651;28;20104;-72
2022/04/22 04:47:07;;;;;;;22.52;17.67;;;31.80;91.50;;;;;;4155960;28;20108;-73
2022/04/22 04:49:34;;;;;;;25.88;18.17;;;31.80;91.40;;;;;;4160917;28;20046;-72
2022/04/22 04:52:00;;;;;;;24.88;17.55;;;31.90;91.30;;;;;;4156580;28;20053;-72
2022/04/22 04:54:24;;;;;;;23.02;17.90;;;31.80;91.20;;;;;;4135267;28;20050;-72
2022/04/22 04:56:53;;;;;;;23.90;17.85;;;31.70;91.50;;;;;;4173956;28;20064;-72
2022/04/22 04:59:17;;;;;;;19.65;16.00;;;31.70;91.30;;;;;;4173267;28;20443;-72
2022/04/22 05:01:44;;;;;;;22.75;16.50;;;31.70;91.00;;;;;;4146490;28;20571;-73
2022/04/22 05:04:03;;;;;;;25.77;15.55;;;31.70;90.80;;;;;;4157749;28;20572;-73
2022/04/22 05:06:28;;;;;;;21.02;15.60;;;31.80;90.90;;;;;;4161459;28;20056;-73
2022/04/22 05:08:55;;;;;;;18.83;15.48;;;32.00;90.40;;;;;;4165260;28;20049;-74
2022/04/22 05:11:21;;;;;;;19.83;14.80;;;32.20;90.40;;;;;;4159144;28;20058;-72
2022/04/22 05:13:39;;;;;;;22.67;15.10;;;32.20;90.50;;;;;;4161580;28;20041;-74
2022/04/22 05:16:04;;;;;;;20.00;14.73;;;32.40;90.60;;;;;;4165676;28;20084;-74
2022/04/22 05:18:32;;;;;;;20.42;14.45;;;32.60;90.40;;;;;;4171148;28;20038;-73
2022/04/22 05:20:47;;;;;;;17.30;13.77;;;32.60;90.40;;;;;;4173162;28;20041;-74
2022/04/22 05:23:01;;;;;;;17.63;13.90;;;32.80;89.50;;;;;;4179876;28;20125;-73
2022/04/22 05:25:28;;;;;;;19.33;14.05;;;32.80;89.90;;;;;;4174672;28;20060;-74
2022/04/22 05:27:53;;;;;;;17.85;14.15;;;32.90;90.00;;;;;;4160441;28;20053;-73
2022/04/22 05:32:54;;;;;;;16.00;13.20;;;32.80;89.20;;;;;;4165924;28;19925;-73
2022/04/22 05:35:13;;;;;;;19.13;13.43;;;32.50;89.90;;;;;;4181625;28;20484;-72
2022/04/22 05:38:03;;;;;;;20.85;14.10;;;32.60;90.00;;;;;;4164810;28;20472;-73
2022/04/22 05:40:35;;;;;;;21.25;14.43;;;32.60;90.10;;;;;;4174323;28;20041;-74
2022/04/22 05:43:03;;;;;;;18.52;13.60;;;32.60;89.20;;;;;;4150879;28;20067;-73
2022/04/22 05:45:28;;;;;;;20.83;14.00;;;32.70;89.60;;;;;;4157238;28;20057;-74
2022/04/22 05:47:57;;;;;;;18.80;12.73;;;32.60;89.30;;;;;;4151511;28;20060;-75
2022/04/22 05:50:18;;;;;;;18.45;13.60;;;32.60;89.70;;;;;;4184277;28;20044;-73
2022/04/22 05:52:49;;;;;;;19.52;13.43;;;32.50;89.00;;;;;;4173426;28;20053;-75
2022/04/22 05:55:16;;;;;;;18.20;13.43;;;32.40;89.60;;;;;;4168581;28;20050;-75
2022/04/22 05:57:42;;;;;;;18.20;13.80;;;32.30;90.00;;;;;;4171944;28;20080;-74
2022/04/22 06:00:04;;;;;;;16.05;13.35;;;32.30;90.00;;;;;;4157205;28;20496;-73
2022/04/22 06:02:27;;;;;;;18.33;13.07;;;32.30;90.10;;;;;;4161794;28;20481;-73
2022/04/22 06:04:53;;;;;;;18.77;14.25;;;32.30;89.90;;;;;;4167883;28;20045;-73
2022/04/22 06:07:18;;;;;;;23.33;13.35;;;32.30;89.90;;;;;;4178845;28;20042;-75
2022/04/22 06:12:13;;;;;;;15.57;12.93;;;32.30;89.70;;;;;;4167407;28;20053;-73
2022/04/22 06:14:38;;;;;;;19.08;12.98;;;32.30;89.70;;;;;;4163594;28;20495;-69
2022/04/22 06:17:03;;;;;;;21.35;14.23;;;32.40;89.60;;;;;;4154549;28;20562;-72
2022/04/22 06:19:29;;;;;;;17.48;13.52;;;32.30;90.00;;;;;;4165044;28;20053;-73
2022/04/22 06:21:54;;;;;;;21.50;13.48;;;32.30;90.00;;;;;;4165805;28;20089;-74
2022/04/22 06:24:19;;;;;;;19.00;13.70;;;32.30;90.40;;;;;;4170522;28;20045;-73
2022/04/22 06:26:32;;;;;;;27.58;15.95;;;32.20;91.20;;;;;;4154567;28;20045;-72
2022/04/22 06:28:59;;;;;;;40.83;18.90;;;32.20;91.70;;;;;;4124642;28;20094;-75
2022/04/22 06:31:19;;;;;;;41.05;18.52;;;32.10;95.30;;;;;;4156741;28;20100;-74
2022/04/22 06:33:46;;;;;;;41.03;17.67;;;32.00;96.00;;;;;;4149424;28;20055;-76
2022/04/22 06:36:15;;;;;;;29.25;18.05;;;31.90;96.70;;;;;;4166140;28;20057;-75
2022/04/22 06:38:42;;;;;;;25.65;17.13;;;31.90;96.60;;;;;;4150967;28;20053;-75
2022/04/22 06:46:10;;;;;;;20.95;16.48;;;32.20;96.40;;;;;;4139448;28;20062;-74
2022/04/22 06:48:33;;;;;;;25.88;17.45;;;32.20;96.60;;;;;;4169875;28;20048;-73
2022/04/22 06:51:07;;;;;;;25.38;17.00;;;32.20;96.70;;;;;;4161696;28;20536;-74
2022/04/22 06:53:38;;;;;;;19.95;16.73;;;32.20;96.60;;;;;;4165654;28;20535;-72
2022/04/22 06:56:04;;;;;;;24.10;15.75;;;32.20;97.40;;;;;;4155522;28;20096;-74
2022/04/22 06:58:32;;;;;;;21.00;15.65;;;32.30;96.20;;;;;;4171213;28;20536;-73
2022/04/22 07:01:01;;;;;;;20.05;14.85;;;32.50;95.80;;;;;;4164126;28;20073;-72
2022/04/22 07:03:39;;;;;;;17.88;14.18;;;32.60;94.80;;;;;;4173273;28;20042;-73
2022/04/22 07:06:08;;;;;;;17.30;13.93;;;32.50;93.90;;;;;;4163238;28;20060;-74
2022/04/22 07:08:32;;;;;;;23.52;15.80;;;32.40;93.80;;;;;;4169268;28;20043;-73
2022/04/22 07:10:56;;;;;;;17.80;14.77;;;32.40;94.30;;;;;;4179569;28;20041;-73
2022/04/22 07:13:25;;;;;;;20.95;14.80;;;32.30;95.30;;;;;;4154016;28;20070;-73
2022/04/22 07:15:50;;;;;;;20.27;15.00;;;32.20;95.10;;;;;;4161000;28;20085;-72
2022/04/22 07:18:15;;;;;;;19.33;14.93;;;32.20;95.10;;;;;;4160371;28;20120;-73
2022/04/22 07:20:42;;;;;;;20.63;15.00;;;32.20;95.10;;;;;;4170973;28;20496;-74
2022/04/22 07:23:08;;;;;;;19.73;15.13;;;32.10;95.10;;;;;;4162008;28;20039;-73
2022/04/22 07:25:27;;;;;;;22.75;16.75;;;32.10;95.30;;;;;;4159919;28;20041;-73
2022/04/22 07:27:50;;;;;;;23.63;17.02;;;32.10;95.70;;;;;;4156720;28;20046;-73
2022/04/22 07:30:16;;;;;;;29.45;16.35;;;32.00;95.80;;;;;;4159101;28;20042;-75
2022/04/22 07:32:42;;;;;;;24.25;16.85;;;32.00;96.40;;;;;;4163375;28;20057;-73
2022/04/22 07:35:12;;;;;;;26.27;17.50;;;32.10;96.50;;;;;;4153637;28;20088;-74
2022/04/22 07:37:29;;;;;;;22.05;17.05;;;32.20;97.30;;;;;;4157641;28;20045;-74
2022/04/22 07:39:57;;;;;;;23.98;16.60;;;31.90;97.20;;;;;;4160347;28;20058;-73
2022/04/22 07:42:33;;;;;;;21.00;15.45;;;31.90;96.40;;;;;;4167353;28;20041;-75
2022/04/22 07:47:38;;;;;;;26.60;15.60;;;31.90;96.20;;;;;;4179567;28;20051;-74
2022/04/22 07:50:06;;;;;;;20.15;14.65;;;31.80;95.80;;;;;;4162198;28;20037;-72
2022/04/22 07:52:16;;;;;;;16.75;14.93;;;31.80;95.30;;;;;;4172484;28;20053;-72
2022/04/22 07:54:41;;;;;;;17.95;14.43;;;31.90;95.60;;;;;;4155915;28;20883;-72
2022/04/22 07:57:05;;;;;;;23.35;15.35;;;32.10;95.50;;;;;;4156588;28;20058;-72
2022/04/22 07:59:30;;;;;;;18.90;14.40;;;32.20;95.10;;;;;;4170933;28;20069;-71
2022/04/22 08:01:59;;;;;;;18.23;14.38;;;32.10;94.90;;;;;;4159762;28;20069;-72
2022/04/22 08:04:21;;;;;;;19.60;15.07;;;32.00;94.80;;;;;;4158242;28;20049;-72
2022/04/22 08:06:46;;;;;;;19.80;14.38;;;31.90;94.60;;;;;;4158963;28;20071;-72
2022/04/22 08:09:35;;;;;;;22.63;17.02;;;31.90;95.40;;;;;;4130854;28;20070;-72
2022/04/22 08:12:00;;;;;;;25.83;18.92;;;31.70;94.70;;;;;;4110477;28;20051;-73
2022/04/22 08:14:26;;;;;;;21.52;17.13;;;31.60;95.10;;;;;;4108279;28;20063;-73
2022/04/22 08:16:53;;;;;;;25.15;17.92;;;31.50;95.10;;;;;;4113178;28;20569;-73
2022/04/22 08:19:14;;;;;;;24.02;17.17;;;31.50;95.70;;;;;;4122832;28;20046;-72
2022/04/22 08:21:35;;;;;;;22.00;17.20;;;31.50;95.50;;;;;;4111552;28;20043;-73
2022/04/22 08:24:02;;;;;;;20.52;17.42;;;31.60;95.60;;;;;;4114037;28;20050;-72
2022/04/22 08:26:26;;;;;;;25.45;18.83;;;31.60;96.50;;;;;;4112118;28;20560;-73
2022/04/22 08:28:52;;;;;;;25.70;18.42;;;31.60;97.00;;;;;;4114248;28;20077;-71
2022/04/22 08:31:19;;;;;;;22.30;18.30;;;31.70;97.20;;;;;;4112861;28;20052;-72
2022/04/22 08:33:48;;;;;;;22.33;18.35;;;31.70;96.70;;;;;;4116242;28;20086;-73
2022/04/22 08:36:18;;;;;;;21.10;16.90;;;31.70;97.70;;;;;;4124748;28;20050;-73
2022/04/22 08:38:44;;;;;;;21.73;16.70;;;31.60;96.90;;;;;;4110068;28;20082;-72
2022/04/22 08:41:09;;;;;;;26.58;17.38;;;31.40;97.60;;;;;;4119078;28;20419;-72
2022/04/22 08:43:35;;;;;;;20.50;17.33;;;31.30;97.60;;;;;;4111381;28;20054;-73
2022/04/22 08:46:01;;;;;;;19.23;16.55;;;31.50;98.30;;;;;;4112798;28;20146;-73
2022/04/22 08:50:56;;;;;;;20.88;16.27;;;31.50;98.00;;;;;;4161604;28;20058;-73
2022/04/22 08:53:14;;;;;;;20.60;15.50;;;31.50;98.00;;;;;;4177881;28;20064;-72
2022/04/22 08:55:34;;;;;;;;;;;31.50;97.90;;;;;;4180196;28;20463;-71
2022/04/22 08:58:03;;;;;;;23.10;18.05;;;31.50;98.20;;;;;;4158522;28;19929;-73
2022/04/22 09:00:22;;;;;;;29.20;21.73;;;31.50;98.20;;;;;;4165898;28;20069;-72
2022/04/22 09:02:46;;;;;;;32.28;20.90;;;31.40;99.90;;;;;;4154767;28;20100;-73
2022/04/22 09:05:11;;;;;;;27.95;18.73;;;31.30;99.40;;;;;;4160561;28;20045;-73
2022/04/22 09:07:37;;;;;;;25.38;18.80;;;31.30;99.60;;;;;;4160778;28;20038;-74
2022/04/22 09:10:05;;;;;;;23.15;18.13;;;31.20;99.90;;;;;;4176548;28;20057;-74
2022/04/22 09:12:25;;;;;;;23.17;17.85;;;31.20;99.80;;;;;;4155300;28;20069;-74
2022/04/22 09:14:49;;;;;;;22.20;15.82;;;31.20;99.40;;;;;;4180066;28;20051;-73
2022/04/22 09:17:15;;;;;;;19.65;15.40;;;31.00;98.70;;;;;;4167798;28;20080;-73
2022/04/22 09:19:44;;;;;;;20.48;15.52;;;30.90;98.50;;;;;;4166180;28;20508;-74
2022/04/22 09:22:08;;;;;;;17.98;14.90;;;30.90;98.50;;;;;;4171888;28;20096;-73
2022/04/22 09:24:33;;;;;;;18.90;15.18;;;30.90;98.30;;;;;;4153717;28;20584;-75
2022/04/22 09:26:43;;;;;;;21.13;15.50;;;30.90;98.00;;;;;;4152451;28;20101;-73
2022/04/22 09:29:10;;;;;;;17.17;14.68;;;30.90;97.70;;;;;;4165981;28;20061;-74
2022/04/22 09:31:19;;;;;;;21.80;14.73;;;30.90;97.50;;;;;;4162787;28;20109;-73
2022/04/22 09:33:48;;;;;;;22.63;15.90;;;30.90;97.90;;;;;;4159114;28;20068;-74
2022/04/22 09:43:56;;;;;;;18.23;14.27;;;30.80;97.60;;;;;;4155257;28;20041;-67
2022/04/22 09:46:24;;;;;;;18.88;14.15;;;30.70;98.60;;;;;;4157326;28;20088;-67
2022/04/22 09:48:45;;;;;;;19.55;14.63;;;30.60;97.90;;;;;;4160435;28;20050;-68
2022/04/22 09:51:27;;;;;;;17.27;13.73;;;30.60;97.90;;;;;;4167781;28;20055;-70
2022/04/22 09:54:10;;;;;;;17.15;13.75;;;30.60;97.70;;;;;;4142282;28;20089;-71
2022/04/22 09:56:38;;;;;;;24.23;16.08;;;30.60;97.60;;;;;;4144279;28;20061;-72
2022/04/22 09:59:26;;;;;;;25.48;16.70;;;30.50;97.40;;;;;;4158548;28;20061;-73
2022/04/22 10:01:53;;;;;;;19.75;14.85;;;30.40;97.30;;;;;;4156914;28;20048;-71
2022/04/22 10:04:24;;;;;;;22.25;14.82;;;30.30;96.90;;;;;;4161639;28;20049;-70
2022/04/22 10:06:45;;;;;;;21.98;13.93;;;30.30;96.90;;;;;;4160387;28;20045;-71
2022/04/22 10:09:14;;;;;;;20.58;13.07;;;30.20;96.70;;;;;;4159172;28;20125;-70
2022/04/22 10:11:36;;;;;;;23.25;13.40;;;30.20;96.30;;;;;;4159363;28;20058;-73
2022/04/22 10:14:01;;;;;;;15.40;12.40;;;30.20;96.20;;;;;;4153824;28;20058;-73
2022/04/22 10:16:25;;;;;;;17.25;13.05;;;30.30;96.10;;;;;;4142637;28;20053;-75
2022/04/22 10:18:50;;;;;;;20.73;13.63;;;30.30;96.10;;;;;;4170765;28;20057;-75
2022/04/22 10:20:57;;;;;;;18.67;13.50;;;30.30;96.60;;;;;;4151929;28;20056;-74
2022/04/22 10:23:19;;;;;;;17.35;12.98;;;30.40;96.70;;;;;;4158045;28;20053;-77
2022/04/22 10:25:31;;;;;;;17.55;12.75;;;30.40;97.00;;;;;;4156018;28;20050;-74
2022/04/22 10:27:40;;;;;;;17.45;12.38;;;30.40;96.70;;;;;;4156800;28;20133;-76
2022/04/22 10:29:52;;;;;;;15.43;13.45;;;30.40;96.60;;;;;;4156020;28;20046;-75
2022/04/22 10:32:16;;;;;;;15.57;12.68;;;30.40;96.60;;;;;;4156881;28;20069;-75
2022/04/22 10:34:38;;;;;;;17.45;12.55;;;30.40;96.60;;;;;;4161817;28;20494;-75
2022/04/22 10:36:46;;;;;;;16.42;13.25;;;30.40;97.00;;;;;;4155666;28;20053;-74
2022/04/22 10:38:54;;;;;;;21.55;13.75;;;30.30;98.10;;;;;;4166241;28;20041;-75
2022/04/22 10:41:20;;;;;;;18.92;14.95;;;30.30;98.30;;;;;;4160879;28;20072;-75
2022/04/22 10:43:33;;;;;;;18.27;15.05;;;30.30;98.00;;;;;;4153199;28;20065;-74
2022/04/22 10:47:59;;;;;;;20.65;17.00;;;30.30;98.40;;;;;;4158894;28;20487;-75
2022/04/22 10:50:26;;;;;;;21.63;17.10;;;30.20;99.20;;;;;;4162697;28;20053;-75
2022/04/22 10:52:34;;;;;;;22.30;16.92;;;30.20;99.20;;;;;;4176771;28;20799;-77
2022/04/22 10:55:07;;;;;;;18.85;15.20;;;30.20;99.40;;;;;;4158984;28;20045;-77
2022/04/22 10:57:19;;;;;;;21.08;15.43;;;30.10;99.70;;;;;;4153884;28;20042;-73
2022/04/22 10:59:28;;;;;;;21.38;14.27;;;30.10;99.50;;;;;;4154316;28;20042;-74
2022/04/22 11:01:33;;;;;;;19.52;14.32;;;30.10;99.10;;;;;;4155420;28;20041;-75
2022/04/22 11:03:56;;;;;;;17.00;13.70;;;30.10;99.20;;;;;;4144656;28;20069;-76
2022/04/22 11:06:05;;;;;;;20.70;14.73;;;30.10;99.40;;;;;;4158200;28;20057;-77
2022/04/22 11:08:29;;;;;;;21.05;16.15;;;30.10;99.80;;;;;;4161833;28;20038;-74
2022/04/22 11:10:57;;;;;;;21.17;16.05;;;30.10;99.80;;;;;;4158157;28;20041;-75
2022/04/22 11:13:33;;;;;;;25.38;17.90;;;30.10;99.90;;;;;;4152437;28;20042;-75
2022/04/22 11:15:47;;;;;;;24.48;18.33;;;30.10;99.90;;;;;;4150095;28;20125;-73
2022/04/22 11:17:56;;;;;;;24.13;16.90;;;30.10;99.90;;;;;;4151586;28;20816;-76
2022/04/22 11:20:05;;;;;;;28.52;18.23;;;30.10;99.90;;;;;;4163093;28;20072;-78
2022/04/22 11:22:18;;;;;;;26.77;18.98;;;30.00;99.80;;;;;;4161721;28;20037;-78
2022/04/22 11:24:28;;;;;;;25.42;19.15;;;30.00;99.80;;;;;;4164233;28;20409;-75
2022/04/22 11:26:37;;;;;;;29.67;22.10;;;30.00;99.90;;;;;;4170913;28;20041;-78
2022/04/22 11:28:50;;;;;;;31.95;22.55;;;30.00;99.90;;;;;;4158331;28;20530;-75
2022/04/22 11:30:55;;;;;;;30.27;23.40;;;30.00;99.90;;;;;;4159431;28;20123;-75
2022/04/22 11:33:25;;;;;;;39.90;22.25;;;30.00;99.90;;;;;;4150901;28;20096;-75
2022/04/22 11:35:35;;;;;;;25.65;21.05;;;29.90;99.90;;;;;;4180921;28;20049;-77
2022/04/22 11:37:45;;;;;;;27.30;20.98;;;29.80;99.90;;;;;;4173455;28;20722;-75
2022/04/22 11:39:51;;;;;;;24.65;19.10;;;29.80;99.90;;;;;;4158571;28;20066;-75
2022/04/22 11:42:01;;;;;;;25.00;18.77;;;29.80;99.90;;;;;;4136008;28;20042;-77
2022/04/22 11:44:18;;;;;;;23.70;17.75;;;29.80;99.90;;;;;;4162947;28;20031;-76
2022/04/22 11:46:27;;;;;;;22.90;17.27;;;29.80;99.90;;;;;;4157755;28;20092;-76
2022/04/22 11:48:35;;;;;;;22.40;16.58;;;29.80;99.90;;;;;;4158934;28;20049;-76
2022/04/22 11:50:44;;;;;;;18.67;15.55;;;29.80;99.90;;;;;;4162404;28;20461;-76
2022/04/22 11:52:56;;;;;;;18.25;14.40;;;29.80;99.60;;;;;;4157337;28;20065;-76
2022/04/22 11:55:07;;;;;;;21.65;14.25;;;29.80;99.10;;;;;;4150676;28;20088;-77
2022/04/22 11:57:13;;;;;;;19.50;14.93;;;29.80;98.80;;;;;;4157588;28;20045;-74
2022/04/22 11:59:21;;;;;;;16.55;13.80;;;29.80;98.40;;;;;;4152426;28;20057;-75
2022/04/22 12:06:14;;;;;;;11.88;9.13;;;29.70;97.70;;;;;;4152848;28;20365;-76
2022/04/22 12:08:23;;;;;;;11.00;8.07;;;29.60;95.90;;;;;;4158289;28;20061;-76
2022/04/22 12:10:28;;;;;;;9.18;7.20;;;29.60;96.30;;;;;;4155182;28;20045;-75
2022/04/22 12:12:33;;;;;;;12.27;6.38;;;29.50;96.20;;;;;;4177423;28;20515;-76
2022/04/22 12:14:43;;;;;;;8.88;5.95;;;29.50;96.10;;;;;;4149859;28;20053;-75
2022/04/22 12:17:02;;;;;;;8.90;5.57;;;29.50;96.10;;;;;;4154720;28;20093;-74
2022/04/22 12:19:11;;;;;;;6.75;5.47;;;29.50;95.90;;;;;;4156458;28;20430;-74
2022/04/22 12:21:17;;;;;;;9.05;5.28;;;29.40;96.00;;;;;;4160902;28;20106;-74
2022/04/22 12:23:22;;;;;;;8.95;5.72;;;29.40;95.90;;;;;;4153965;28;20109;-73
2022/04/22 12:25:28;;;;;;;7.18;5.72;;;29.30;95.90;;;;;;4151179;28;20041;-74
2022/04/22 12:27:37;;;;;;;6.88;5.65;;;29.30;95.90;;;;;;4143364;28;20050;-75
2022/04/22 12:29:42;;;;;;;7.93;5.75;;;29.30;96.00;;;;;;4162144;28;20132;-74
2022/04/22 12:31:52;;;;;;;8.20;5.32;;;29.30;95.80;;;;;;4161770;28;20247;-75
2022/04/22 12:34:02;;;;;;;7.47;5.70;;;29.30;96.10;;;;;;4155303;28;20049;-75
2022/04/22 12:36:10;;;;;;;8.07;5.80;;;29.30;96.10;;;;;;4158460;28;20050;-77
2022/04/22 12:38:15;;;;;;;8.32;6.28;;;29.30;95.90;;;;;;4157369;28;20128;-75
2022/04/22 12:40:28;;;;;;;7.85;5.80;;;29.20;95.60;;;;;;4126098;28;20081;-75
2022/04/22 12:42:35;;;;;;;7.97;6.38;;;29.20;95.40;;;;;;4162901;28;20735;-74
2022/04/22 12:52:07;;;;;;;9.10;6.72;;;29.20;95.40;;;;;;4165406;28;20053;-74
2022/04/22 12:54:06;;;;;;;13.30;8.18;;;29.20;95.50;;;;;;4161687;28;20069;-75
2022/04/22 12:56:26;;;;;;;12.05;7.95;;;29.10;95.60;;;;;;4156118;28;20085;-76
2022/04/22 12:58:32;;;;;;;13.48;7.82;;;28.60;96.40;;;;;;4155666;28;20042;-75
2022/04/22 13:00:43;;;;;;;8.80;7.43;;;28.60;96.70;;;;;;4158119;28;20080;-75
2022/04/22 13:02:47;;;;;;;13.48;7.60;;;28.60;97.00;;;;;;4156154;28;20052;-75
2022/04/22 13:05:00;;;;;;;12.88;8.38;;;28.30;97.30;;;;;;4164627;28;20064;-74
2022/04/22 13:07:11;;;;;;;11.13;8.95;;;28.30;97.20;;;;;;4156833;28;20057;-73
2022/04/22 13:09:18;;;;;;;12.38;8.80;;;28.40;96.80;;;;;;4158437;28;20247;-74
2022/04/22 13:11:24;;;;;;;14.68;9.70;;;28.40;97.10;;;;;;4156682;28;20054;-73
2022/04/22 13:13:33;;;;;;;14.18;11.38;;;28.50;97.30;;;;;;4159106;28;20034;-73
2022/04/22 13:15:39;;;;;;;22.70;12.30;;;28.60;98.10;;;;;;4154610;28;20107;-74
2022/04/22 13:17:47;;;;;;;20.63;13.40;;;28.60;98.80;;;;;;4158246;28;20069;-74
2022/04/22 13:19:54;;;;;;;20.75;13.55;;;28.60;99.30;;;;;;4159534;28;20428;-73
2022/04/22 13:21:59;;;;;;;23.75;14.45;;;28.60;99.80;;;;;;4155158;28;20049;-73
2022/04/22 13:24:06;;;;;;;22.75;14.25;;;28.50;99.90;;;;;;4155922;28;20136;-74
2022/04/22 13:26:21;;;;;;;26.30;15.20;;;28.50;99.90;;;;;;4155706;28;20045;-75
2022/04/22 13:28:29;;;;;;;23.80;16.10;;;28.60;99.90;;;;;;4155205;28;20069;-73
2022/04/22 13:30:34;;;;;;;25.75;15.88;;;28.70;99.90;;;;;;4157983;28;20041;-74
2022/04/22 13:32:43;;;;;;;25.40;15.00;;;28.70;99.90;;;;;;4157904;28;20077;-74
2022/04/22 13:34:48;;;;;;;27.13;15.75;;;28.70;99.90;;;;;;4157671;28;20046;-75
2022/04/22 13:36:53;;;;;;;19.88;14.50;;;28.70;99.90;;;;;;4161115;28;20080;-75
2022/04/22 13:39:04;;;;;;;22.02;15.07;;;28.70;99.90;;;;;;4160412;28;20061;-76
2022/04/22 13:41:09;;;;;;;19.50;14.18;;;28.70;99.90;;;;;;4173132;28;20044;-75
2022/04/22 13:43:15;;;;;;;21.00;14.88;;;28.60;99.90;;;;;;4159330;28;20049;-75
2022/04/22 13:52:26;;;;;;;18.05;13.23;;;28.40;99.90;;;;;;4159689;28;20042;-76
2022/04/22 13:54:31;;;;;;;22.15;15.20;;;28.40;99.90;;;;;;4161558;28;20053;-74
2022/04/22 13:56:36;;;;;;;21.58;14.57;;;28.40;99.90;;;;;;4158537;28;20081;-75
2022/04/22 13:58:43;;;;;;;20.35;14.40;;;28.50;99.90;;;;;;4160809;28;20053;-74
2022/04/22 14:00:51;;;;;;;23.42;14.23;;;28.50;99.90;;;;;;4155308;28;20547;-75
2022/04/22 14:03:04;;;;;;;20.73;14.63;;;28.40;99.90;;;;;;4152730;28;20492;-75
2022/04/22 14:05:20;;;;;;;18.20;15.07;;;28.50;99.90;;;;;;4158619;28;20103;-75
2022/04/22 14:07:30;;;;;;;20.55;14.70;;;28.50;99.90;;;;;;4166790;28;20093;-76
2022/04/22 14:09:40;;;;;;;19.88;15.05;;;28.50;99.90;;;;;;4167491;28;20096;-76
2022/04/22 14:11:48;;;;;;;19.88;16.08;;;28.50;99.90;;;;;;4165379;28;20440;-75